createdAt,value
2018-12-08T00:00:54.804Z,70.10
2018-12-08T00:03:22.236Z,70.10
2018-12-08T00:05:49.673Z,70.20
2018-12-08T00:08:17.157Z,69.90
2018-12-08T00:10:44.637Z,69.90
2018-12-08T00:13:12.063Z,70.40
2018-12-08T00:15:39.499Z,70.10
2018-12-08T00:18:06.925Z,69.90
2018-12-08T00:20:34.366Z,70.00
2018-12-08T00:23:01.789Z,70.20
2018-12-08T00:25:29.232Z,69.90
2018-12-08T00:27:56.665Z,70.00
2018-12-08T00:33:26.745Z,71.00
2018-12-08T00:35:54.225Z,71.70
2018-12-08T00:38:21.799Z,71.70
2018-12-08T00:40:49.288Z,71.70
2018-12-08T00:43:16.760Z,71.80
2018-12-08T00:45:44.246Z,71.90
2018-12-08T00:48:11.807Z,72.20
2018-12-08T00:50:39.303Z,72.10
2018-12-08T00:53:06.776Z,72.10
2018-12-08T00:55:34.255Z,72.00
2018-12-08T00:58:01.889Z,71.60
2018-12-08T01:00:29.357Z,71.40
2018-12-08T01:02:56.897Z,71.50
2018-12-08T01:05:24.373Z,72.10
2018-12-08T01:07:51.888Z,71.00
2018-12-08T01:10:19.388Z,71.30
2018-12-08T01:12:48.025Z,70.90
2018-12-08T01:15:15.505Z,70.80
2018-12-08T01:17:42.983Z,71.00
2018-12-08T01:20:10.453Z,70.70
2018-12-08T01:22:37.945Z,70.50
2018-12-08T01:25:05.433Z,70.10
2018-12-08T01:27:32.898Z,70.00
2018-12-08T01:30:00.382Z,69.80
2018-12-08T01:32:27.854Z,69.40
2018-12-08T01:34:55.446Z,69.20
2018-12-08T01:37:22.923Z,69.40
2018-12-08T01:39:50.406Z,69.50
2018-12-08T01:42:17.891Z,69.40
2018-12-08T01:44:45.469Z,69.50
2018-12-08T01:47:12.949Z,69.50
2018-12-08T01:49:40.421Z,69.70
2018-12-08T01:52:07.897Z,69.90
2018-12-08T01:54:35.392Z,69.90
2018-12-08T01:57:02.867Z,70.20
2018-12-08T01:59:30.456Z,69.90
2018-12-08T02:01:57.938Z,70.10
2018-12-08T02:04:25.423Z,69.90
2018-12-08T02:06:52.914Z,69.80
2018-12-08T02:09:21.510Z,70.50
2018-12-08T02:11:49.098Z,69.90
2018-12-08T02:14:16.552Z,69.70
2018-12-08T02:16:44.039Z,69.90
2018-12-08T02:19:11.629Z,69.40
2018-12-08T02:21:39.109Z,70.40
2018-12-08T02:24:06.591Z,69.50
2018-12-08T02:26:34.069Z,69.20
2018-12-08T02:29:01.624Z,69.10
2018-12-08T02:31:29.118Z,68.90
2018-12-08T02:33:56.608Z,68.90
2018-12-08T02:36:24.090Z,68.60
2018-12-08T02:38:51.647Z,68.30
2018-12-08T02:41:19.115Z,68.50
2018-12-08T02:43:46.706Z,68.50
2018-12-08T02:46:16.467Z,68.70
2018-12-08T02:48:43.707Z,68.40
2018-12-08T02:51:11.197Z,68.30
2018-12-08T02:53:38.802Z,68.50
2018-12-08T02:56:06.275Z,68.40
2018-12-08T02:58:33.746Z,68.40
2018-12-08T03:01:01.227Z,68.20
2018-12-08T03:03:28.796Z,68.30
2018-12-08T03:05:56.289Z,68.40
2018-12-08T03:08:23.752Z,68.60
2018-12-08T03:10:51.246Z,68.40
2018-12-08T03:13:18.720Z,68.40
2018-12-08T03:15:46.195Z,68.60
2018-12-08T03:18:13.786Z,68.70
2018-12-08T03:20:41.257Z,68.60
2018-12-08T03:23:08.719Z,68.60
2018-12-08T03:25:36.190Z,68.60
2018-12-08T03:28:03.801Z,68.70
2018-12-08T03:30:31.294Z,68.70
2018-12-08T03:32:58.874Z,68.70
2018-12-08T03:35:27.355Z,68.70
2018-12-08T03:37:54.824Z,68.80
2018-12-08T03:40:22.418Z,68.60
2018-12-08T03:42:49.994Z,68.30
2018-12-08T03:45:17.491Z,68.20
2018-12-08T03:47:44.974Z,68.40
2018-12-08T03:50:12.531Z,68.50
2018-12-08T03:52:40.009Z,68.60
2018-12-08T03:55:07.485Z,68.50
2018-12-08T03:57:34.979Z,68.70
2018-12-08T04:00:02.667Z,68.70
2018-12-08T04:02:30.145Z,68.80
2018-12-08T04:04:57.719Z,69.00
2018-12-08T04:07:25.223Z,68.80
2018-12-08T04:09:52.804Z,68.70
2018-12-08T04:12:20.295Z,68.90
2018-12-08T04:14:47.925Z,68.90
2018-12-08T04:17:15.424Z,69.00
2018-12-08T04:19:42.911Z,68.90
2018-12-08T04:22:10.389Z,68.90
2018-12-08T04:24:38.069Z,68.90
2018-12-08T04:27:05.592Z,69.00
2018-12-08T04:29:33.132Z,68.80
2018-12-08T04:32:00.712Z,68.80
2018-12-08T04:34:28.292Z,68.70
2018-12-08T04:36:55.795Z,68.90
2018-12-08T04:39:23.270Z,69.00
2018-12-08T04:41:50.743Z,68.70
2018-12-08T04:44:18.310Z,69.00
2018-12-08T04:46:45.796Z,68.80
2018-12-08T04:49:14.386Z,68.60
2018-12-08T04:51:41.867Z,68.70
2018-12-08T04:54:10.362Z,68.70
2018-12-08T04:56:37.842Z,68.80
2018-12-08T04:59:05.457Z,69.10
2018-12-08T05:01:32.954Z,69.10
2018-12-08T05:04:00.496Z,69.40
2018-12-08T05:06:27.983Z,69.50
2018-12-08T05:08:55.559Z,69.60
2018-12-08T05:11:23.034Z,69.70
2018-12-08T05:13:50.518Z,70.60
2018-12-08T05:16:18.016Z,70.00
2018-12-08T05:18:45.561Z,69.90
2018-12-08T05:21:13.036Z,69.70
2018-12-08T05:23:41.651Z,69.70
2018-12-08T05:26:09.127Z,69.80
2018-12-08T05:28:36.606Z,69.80
2018-12-08T05:31:04.096Z,70.20
2018-12-08T05:33:31.591Z,70.20
2018-12-08T05:35:59.077Z,70.10
2018-12-08T05:38:26.563Z,70.40
2018-12-08T05:40:54.040Z,70.70
2018-12-08T05:43:21.534Z,70.80
2018-12-08T05:45:49.003Z,71.10
2018-12-08T05:48:16.490Z,71.40
2018-12-08T05:50:44.027Z,71.70
2018-12-08T05:53:11.513Z,71.10
2018-12-08T05:55:38.989Z,72.10
2018-12-08T05:58:06.474Z,72.30
2018-12-08T06:00:34.193Z,72.20
2018-12-08T06:03:01.674Z,72.20
2018-12-08T06:05:29.166Z,72.20
2018-12-08T06:07:58.673Z,72.50
2018-12-08T06:10:26.110Z,72.50
2018-12-08T06:12:53.608Z,72.50
2018-12-08T06:15:21.095Z,72.60
2018-12-08T06:17:48.585Z,73.30
2018-12-08T06:20:16.049Z,72.50
2018-12-08T06:22:43.538Z,72.50
2018-12-08T06:25:13.755Z,72.50
2018-12-08T06:27:45.149Z,72.90
2018-12-08T06:30:12.643Z,73.20
2018-12-08T06:32:40.119Z,73.40
2018-12-08T06:35:07.585Z,73.50
2018-12-08T06:37:35.096Z,73.60
2018-12-08T06:40:03.032Z,73.70
2018-12-08T06:42:30.528Z,74.00
2018-12-08T06:44:58.012Z,73.90
2018-12-08T06:47:25.494Z,73.90
2018-12-08T06:49:52.969Z,73.70
2018-12-08T06:52:20.463Z,73.60
2018-12-08T06:54:47.938Z,73.40
2018-12-08T06:57:15.462Z,73.50
2018-12-08T06:59:42.917Z,73.30
2018-12-08T07:02:10.506Z,73.40
2018-12-08T07:04:37.974Z,74.10
2018-12-08T07:07:08.868Z,74.50
2018-12-08T07:09:36.364Z,74.60
2018-12-08T07:12:03.846Z,74.30
2018-12-08T07:14:31.340Z,74.10
2018-12-08T07:16:58.910Z,74.10
2018-12-08T07:19:26.390Z,73.70
2018-12-08T07:21:53.973Z,72.50
2018-12-08T07:24:21.468Z,72.30
2018-12-08T07:26:49.017Z,72.20
2018-12-08T07:29:16.502Z,72.20
2018-12-08T07:31:43.986Z,72.10
2018-12-08T07:34:12.507Z,72.00
2018-12-08T07:36:39.987Z,72.00
2018-12-08T07:39:07.561Z,72.20
2018-12-08T07:41:35.031Z,72.10
2018-12-08T07:44:02.527Z,72.40
2018-12-08T07:46:30.013Z,72.40
2018-12-08T07:48:57.515Z,72.40
2018-12-08T07:51:24.992Z,72.20
2018-12-08T07:53:52.476Z,72.10
2018-12-08T07:56:21.919Z,71.90
2018-12-08T07:58:49.405Z,72.00
2018-12-08T08:01:16.922Z,71.50
2018-12-08T08:03:44.494Z,71.20
2018-12-08T08:06:11.979Z,71.30
2018-12-08T08:08:39.518Z,71.40
2018-12-08T08:11:07.161Z,71.00
2018-12-08T08:13:34.764Z,70.80
2018-12-08T08:16:02.280Z,72.20
2018-12-08T08:18:29.795Z,72.20
2018-12-08T08:20:57.330Z,72.40
2018-12-08T08:23:24.819Z,72.40
2018-12-08T08:25:53.114Z,72.70
2018-12-08T08:28:20.670Z,72.70
2018-12-08T08:30:49.201Z,73.00
2018-12-08T08:33:16.711Z,73.20
2018-12-08T08:35:44.193Z,73.60
2018-12-08T08:38:12.777Z,74.00
2018-12-08T08:40:40.268Z,74.40
2018-12-08T08:43:07.738Z,74.20
2018-12-08T08:45:35.333Z,74.10
2018-12-08T08:48:02.913Z,74.50
2018-12-08T08:50:30.401Z,74.60
2018-12-08T08:52:57.863Z,74.70
2018-12-08T08:55:26.288Z,74.70
2018-12-08T08:57:53.949Z,74.60
2018-12-08T09:00:21.436Z,74.70
2018-12-08T09:02:48.927Z,74.60
2018-12-08T09:05:16.438Z,74.80
2018-12-08T09:07:43.915Z,75.10
2018-12-08T09:10:11.402Z,75.40
2018-12-08T09:12:38.873Z,75.40
2018-12-08T09:15:07.479Z,75.70
2018-12-08T09:17:34.950Z,76.00
2018-12-08T09:20:02.487Z,76.20
2018-12-08T09:22:29.953Z,76.40
2018-12-08T09:24:57.456Z,76.50
2018-12-08T09:27:24.923Z,76.60
2018-12-08T09:29:52.450Z,76.50
2018-12-08T09:32:19.915Z,76.60
2018-12-08T09:34:47.392Z,76.70
2018-12-08T09:37:14.893Z,77.00
2018-12-08T09:39:42.373Z,77.00
2018-12-08T09:42:15.423Z,77.50
2018-12-08T09:44:42.913Z,77.20
2018-12-08T09:47:10.392Z,77.60
2018-12-08T09:49:37.871Z,77.60
2018-12-08T09:52:05.336Z,77.70
2018-12-08T09:54:32.844Z,78.00
2018-12-08T09:57:00.306Z,78.00
2018-12-08T09:59:27.798Z,78.10
2018-12-08T10:01:55.275Z,78.20
2018-12-08T10:04:22.775Z,78.20
2018-12-08T10:06:50.332Z,77.90
2018-12-08T10:09:17.802Z,78.10
2018-12-08T10:11:45.460Z,78.50
2018-12-08T10:14:12.927Z,78.40
2018-12-08T10:16:40.402Z,78.50
2018-12-08T10:19:07.890Z,78.40
2018-12-08T10:21:35.358Z,78.50
2018-12-08T10:24:02.850Z,78.60
2018-12-08T10:26:30.335Z,78.90
2018-12-08T10:28:57.833Z,79.10
2018-12-08T10:31:25.311Z,79.10
2018-12-08T10:33:52.768Z,79.20
2018-12-08T10:36:20.253Z,79.30
2018-12-08T10:38:47.724Z,79.20
2018-12-08T10:41:15.226Z,79.50
2018-12-08T10:43:42.698Z,79.80
2018-12-08T10:46:10.179Z,79.70
2018-12-08T10:48:37.669Z,80.00
2018-12-08T10:51:05.151Z,80.20
2018-12-08T10:53:32.629Z,79.70
2018-12-08T10:56:00.180Z,79.70
2018-12-08T10:58:27.645Z,79.70
2018-12-08T11:01:00.751Z,79.80
2018-12-08T11:03:28.291Z,79.70
2018-12-08T11:05:55.797Z,79.80
2018-12-08T11:08:23.290Z,79.00
2018-12-08T11:10:50.802Z,78.80
2018-12-08T11:13:18.321Z,78.60
2018-12-08T11:15:45.825Z,78.50
2018-12-08T11:18:13.362Z,78.50
2018-12-08T11:20:40.897Z,78.60
2018-12-08T11:23:08.467Z,78.50
2018-12-08T11:25:35.967Z,78.40
2018-12-08T11:28:03.470Z,78.40
2018-12-08T11:30:31.442Z,78.20
2018-12-08T11:32:59.129Z,78.00
2018-12-08T11:35:26.629Z,77.70
2018-12-08T11:37:54.152Z,77.70
2018-12-08T11:40:21.673Z,77.50
2018-12-08T11:42:49.155Z,77.50
2018-12-08T11:45:16.652Z,77.40
2018-12-08T11:47:44.129Z,77.10
2018-12-08T11:50:11.623Z,77.20
2018-12-08T11:52:39.111Z,76.90
2018-12-08T11:55:06.590Z,76.60
2018-12-08T11:57:34.069Z,76.80
2018-12-08T12:00:01.618Z,76.70
2018-12-08T12:02:29.103Z,76.80
2018-12-08T12:04:56.589Z,76.30
2018-12-08T12:07:24.124Z,75.80
2018-12-08T12:09:51.602Z,75.60
2018-12-08T12:12:19.125Z,75.40
2018-12-08T12:14:46.662Z,75.20
2018-12-08T12:17:14.163Z,75.00
2018-12-08T12:19:41.645Z,74.80
2018-12-08T12:22:09.166Z,74.60
2018-12-08T12:24:36.650Z,74.50
2018-12-08T12:27:04.139Z,74.40
2018-12-08T12:29:31.610Z,74.30
2018-12-08T12:31:59.175Z,74.30
2018-12-08T12:34:26.752Z,74.50
2018-12-08T12:36:54.237Z,74.40
2018-12-08T12:39:21.709Z,74.50
2018-12-08T12:41:49.208Z,74.30
2018-12-08T12:44:16.758Z,74.30
2018-12-08T12:46:44.250Z,74.60
2018-12-08T12:49:11.883Z,74.80
2018-12-08T12:51:39.378Z,74.50
2018-12-08T12:54:06.867Z,74.20
2018-12-08T12:56:34.362Z,74.10
2018-12-08T12:59:02.031Z,74.10
2018-12-08T13:01:29.531Z,73.90
2018-12-08T13:03:58.800Z,73.60
2018-12-08T13:06:26.281Z,73.40
2018-12-08T13:08:54.043Z,73.30
2018-12-08T13:11:21.599Z,73.10
2018-12-08T13:13:49.079Z,73.20
2018-12-08T13:16:16.558Z,73.00
2018-12-08T13:18:44.104Z,72.90
2018-12-08T13:21:11.595Z,72.70
2018-12-08T13:23:39.147Z,72.60
2018-12-08T13:26:06.651Z,72.40
2018-12-08T13:28:34.123Z,72.10
2018-12-08T13:31:01.622Z,72.20
2018-12-08T13:33:29.200Z,72.40
2018-12-08T13:35:56.681Z,72.60
2018-12-08T13:38:24.156Z,72.70
2018-12-08T13:40:51.715Z,72.70
2018-12-08T13:43:19.187Z,72.50
2018-12-08T13:45:46.697Z,72.70
2018-12-08T13:48:15.448Z,72.80
2018-12-08T13:50:43.344Z,72.80
2018-12-08T13:53:10.830Z,73.00
2018-12-08T13:55:38.438Z,72.20
2018-12-08T13:58:05.948Z,73.20
2018-12-08T14:00:33.535Z,73.30
2018-12-08T14:03:01.034Z,73.30
2018-12-08T14:05:28.603Z,73.40
2018-12-08T14:07:56.101Z,73.40
2018-12-08T14:10:23.658Z,73.50
2018-12-08T14:12:51.139Z,73.40
2018-12-08T14:15:18.703Z,73.50
2018-12-08T14:17:46.222Z,73.70
2018-12-08T14:20:22.849Z,74.00
2018-12-08T14:22:50.338Z,74.80
2018-12-08T14:25:19.090Z,74.00
2018-12-08T14:27:46.605Z,74.10
2018-12-08T14:30:14.139Z,74.50
2018-12-08T14:32:41.634Z,74.40
2018-12-08T14:35:09.124Z,74.70
2018-12-08T14:37:36.681Z,74.70
2018-12-08T14:40:05.493Z,74.70
2018-12-08T14:42:33.110Z,74.50
2018-12-08T14:45:00.600Z,74.50
2018-12-08T14:47:28.121Z,74.50
2018-12-08T14:49:55.602Z,74.40
2018-12-08T14:52:23.206Z,74.20
2018-12-08T14:54:50.684Z,73.90
2018-12-08T14:57:18.270Z,75.10
2018-12-08T14:59:45.762Z,74.20
2018-12-08T15:02:13.330Z,74.10
2018-12-08T15:04:40.807Z,73.80
2018-12-08T15:07:08.363Z,73.70
2018-12-08T15:09:42.220Z,73.50
2018-12-08T15:12:09.720Z,72.80
2018-12-08T15:14:37.226Z,72.80
2018-12-08T15:17:04.846Z,72.70
2018-12-08T15:19:32.355Z,72.40
2018-12-08T15:21:59.849Z,72.10
2018-12-08T15:24:27.344Z,72.30
2018-12-08T15:26:54.893Z,72.00
2018-12-08T15:29:22.347Z,71.80
2018-12-08T15:31:49.946Z,71.80
2018-12-08T15:34:17.435Z,71.50
2018-12-08T15:36:45.035Z,71.40
2018-12-08T15:39:12.664Z,71.10
2018-12-08T15:41:40.219Z,71.10
2018-12-08T15:44:07.699Z,70.90
2018-12-08T15:46:35.186Z,70.80
2018-12-08T15:49:02.769Z,70.70
2018-12-08T15:51:30.321Z,70.60
2018-12-08T15:53:59.258Z,70.40
2018-12-08T15:56:26.758Z,70.40
2018-12-08T15:58:54.345Z,70.30
2018-12-08T16:01:21.826Z,70.00
2018-12-08T16:03:49.304Z,69.70
2018-12-08T16:06:16.792Z,69.60
2018-12-08T16:08:44.441Z,69.70
2018-12-08T16:11:12.013Z,69.70
2018-12-08T16:13:39.665Z,69.50
2018-12-08T16:16:07.183Z,69.50
2018-12-08T16:18:34.670Z,69.20
2018-12-08T16:21:02.241Z,69.20
2018-12-08T16:23:29.832Z,68.80
2018-12-08T16:25:57.310Z,69.00
2018-12-08T16:28:24.806Z,68.70
2018-12-08T16:30:52.328Z,68.60
2018-12-08T16:33:19.848Z,68.40
2018-12-08T16:35:47.409Z,68.40
2018-12-08T16:38:14.909Z,68.40
2018-12-08T16:40:42.676Z,68.30
2018-12-08T16:43:10.229Z,68.40
2018-12-08T16:45:37.744Z,68.00
2018-12-08T16:48:05.240Z,68.00
2018-12-08T16:50:32.732Z,68.10
2018-12-08T16:53:00.298Z,68.10
2018-12-08T16:55:27.860Z,67.90
2018-12-08T16:57:55.355Z,68.70
2018-12-08T17:00:22.827Z,67.70
2018-12-08T17:02:50.323Z,67.50
2018-12-08T17:05:17.960Z,67.40
2018-12-08T17:07:45.454Z,67.20
2018-12-08T17:10:13.063Z,67.00
2018-12-08T17:12:40.543Z,67.00
2018-12-08T17:15:08.058Z,66.60
2018-12-08T17:17:35.555Z,66.60
2018-12-08T17:20:04.239Z,66.40
2018-12-08T17:22:31.724Z,66.20
2018-12-08T17:24:59.277Z,66.30
2018-12-08T17:27:26.762Z,67.20
2018-12-08T17:29:54.357Z,66.10
2018-12-08T17:32:21.853Z,66.00
2018-12-08T17:34:49.341Z,65.80
2018-12-08T17:37:16.844Z,66.30
2018-12-08T17:39:44.345Z,65.50
2018-12-08T17:42:11.832Z,65.40
2018-12-08T17:44:39.411Z,65.40
2018-12-08T17:47:06.904Z,65.40
2018-12-08T17:49:35.391Z,65.40
2018-12-08T17:52:02.893Z,65.60
2018-12-08T17:54:30.365Z,65.70
2018-12-08T17:56:57.869Z,65.40
2018-12-08T17:59:25.416Z,65.70
2018-12-08T18:01:52.938Z,65.60
2018-12-08T18:04:20.448Z,65.80
2018-12-08T18:06:47.950Z,65.90
2018-12-08T18:09:15.464Z,65.90
2018-12-08T18:11:42.966Z,66.20
2018-12-08T18:14:10.479Z,66.20
2018-12-08T18:16:39.006Z,66.00
2018-12-08T18:19:06.491Z,66.10
2018-12-08T18:21:33.976Z,66.10
2018-12-08T18:24:01.586Z,66.40
2018-12-08T18:26:29.066Z,66.70
2018-12-08T18:28:56.754Z,66.80
2018-12-08T18:31:24.273Z,67.00
2018-12-08T18:33:51.763Z,67.10
2018-12-08T18:36:19.255Z,67.30
2018-12-08T18:38:46.749Z,67.30
2018-12-08T18:41:14.230Z,67.50
2018-12-08T18:43:41.762Z,68.00
2018-12-08T18:46:09.245Z,68.00
2018-12-08T18:48:36.770Z,68.00
2018-12-08T18:51:04.251Z,68.40
2018-12-08T18:53:31.733Z,69.00
2018-12-08T18:55:59.282Z,69.80
2018-12-08T18:58:26.808Z,70.80
2018-12-08T19:00:54.332Z,71.40
2018-12-08T19:03:21.919Z,72.00
2018-12-08T19:05:49.424Z,72.60
2018-12-08T19:08:17.073Z,73.20
2018-12-08T19:10:44.571Z,73.80
2018-12-08T19:13:12.072Z,74.10
2018-12-08T19:15:39.586Z,74.60
2018-12-08T19:18:07.076Z,75.10
2018-12-08T19:20:34.676Z,75.40
2018-12-08T19:23:02.194Z,75.70
2018-12-08T19:25:29.694Z,76.30
2018-12-08T19:27:57.206Z,77.40
2018-12-08T19:30:24.685Z,77.20
2018-12-08T19:32:52.170Z,77.50
2018-12-08T19:35:19.654Z,78.10
2018-12-08T19:37:47.188Z,78.40
2018-12-08T19:40:14.687Z,78.50
2018-12-08T19:42:42.175Z,78.80
2018-12-08T19:45:09.720Z,78.90
2018-12-08T19:47:37.181Z,79.10
2018-12-08T19:50:05.730Z,80.20
2018-12-08T19:52:33.214Z,79.50
2018-12-08T19:55:00.709Z,79.40
2018-12-08T19:57:28.185Z,79.50
2018-12-08T19:59:56.803Z,79.40
2018-12-08T20:02:24.275Z,79.50
2018-12-08T20:04:51.763Z,79.80
2018-12-08T20:07:19.239Z,79.90
2018-12-08T20:09:46.935Z,80.00
2018-12-08T20:12:14.411Z,80.00
2018-12-08T20:14:41.901Z,80.10
2018-12-08T20:17:09.390Z,80.30
2018-12-08T20:19:36.870Z,80.30
2018-12-08T20:22:04.349Z,80.40
2018-12-08T20:24:31.836Z,80.40
2018-12-08T20:26:59.328Z,80.50
2018-12-08T20:29:26.806Z,80.50
2018-12-08T20:31:54.293Z,80.60
2018-12-08T20:34:22.120Z,80.60
2018-12-08T20:36:49.621Z,80.60
2018-12-08T20:39:17.136Z,80.70
2018-12-08T20:41:44.613Z,80.80
2018-12-08T20:44:12.090Z,81.00
2018-12-08T20:46:39.614Z,80.90
2018-12-08T20:49:07.106Z,81.00
2018-12-08T20:51:34.636Z,80.90
2018-12-08T20:54:02.126Z,81.00
2018-12-08T20:56:29.649Z,80.70
2018-12-08T20:58:57.132Z,80.80
2018-12-08T21:01:24.637Z,80.90
2018-12-08T21:03:52.115Z,80.50
2018-12-08T21:06:19.609Z,80.70
2018-12-08T21:08:47.106Z,80.10
2018-12-08T21:11:14.593Z,79.90
2018-12-08T21:13:42.094Z,79.70
2018-12-08T21:16:09.610Z,79.30
2018-12-08T21:18:37.085Z,79.20
2018-12-08T21:21:04.575Z,79.10
2018-12-08T21:23:32.083Z,78.90
2018-12-08T21:25:59.605Z,78.50
2018-12-08T21:28:27.126Z,78.20
2018-12-08T21:30:56.703Z,78.10
2018-12-08T21:33:24.203Z,78.00
2018-12-08T21:35:51.717Z,77.40
2018-12-08T21:38:19.190Z,77.10
2018-12-08T21:40:46.734Z,76.80
2018-12-08T21:43:14.211Z,76.60
2018-12-08T21:45:41.719Z,76.10
2018-12-08T21:48:09.216Z,75.70
2018-12-08T21:50:36.721Z,75.30
2018-12-08T21:53:04.209Z,75.00
2018-12-08T21:55:31.700Z,74.60
2018-12-08T21:57:59.198Z,74.60
2018-12-08T22:00:28.728Z,74.40
2018-12-08T22:02:56.211Z,74.50
2018-12-08T22:05:23.757Z,74.40
2018-12-08T22:07:51.252Z,74.40
2018-12-08T22:10:18.817Z,74.80
2018-12-08T22:12:46.323Z,74.80
2018-12-08T22:15:16.217Z,74.90
2018-12-08T22:17:44.107Z,75.00
2018-12-08T22:20:11.577Z,75.30
2018-12-08T22:22:39.059Z,75.50
2018-12-08T22:25:06.554Z,76.60
2018-12-08T22:27:34.053Z,75.90
2018-12-08T22:30:01.542Z,76.10
2018-12-08T22:32:29.055Z,76.40
2018-12-08T22:34:56.730Z,76.70
2018-12-08T22:37:24.270Z,77.00
2018-12-08T22:39:51.754Z,77.10
2018-12-08T22:42:19.236Z,77.30
2018-12-08T22:44:46.721Z,77.60
2018-12-08T22:47:14.286Z,77.70
2018-12-08T22:49:41.771Z,77.60
2018-12-08T22:52:09.253Z,77.40
2018-12-08T22:54:36.730Z,77.60
2018-12-08T22:57:05.543Z,78.00
2018-12-08T22:59:33.028Z,78.10
2018-12-08T23:02:00.573Z,78.50
2018-12-08T23:04:28.049Z,78.30
2018-12-08T23:06:59.583Z,78.10
2018-12-08T23:09:27.074Z,78.00
2018-12-08T23:11:54.648Z,78.00
2018-12-08T23:14:22.136Z,78.40
2018-12-08T23:16:49.662Z,78.40
2018-12-08T23:19:17.135Z,78.30
2018-12-08T23:21:44.727Z,78.40
2018-12-08T23:24:12.210Z,78.50
2018-12-08T23:26:41.771Z,76.80
2018-12-08T23:29:09.254Z,75.40
2018-12-08T23:31:36.786Z,74.00
2018-12-08T23:34:04.270Z,73.90
2018-12-08T23:36:31.851Z,73.60
2018-12-08T23:38:59.398Z,73.50
2018-12-08T23:41:27.006Z,73.50
2018-12-08T23:43:54.492Z,73.60
2018-12-08T23:46:22.071Z,73.60
2018-12-08T23:48:49.550Z,73.70
2018-12-08T23:51:18.537Z,73.80
2018-12-08T23:53:46.215Z,73.90
2018-12-08T23:56:13.710Z,73.90
2018-12-08T23:58:41.204Z,73.90
